• Join FlightAware (Why Join?)
  • Login
  • US Flag 
09:03PM EDT


 

Airport Tracker/Info


-or-


 

Live Flight TrackerFlight Track Log ✈ PDT4142 ✈ 03-Feb-2014 ✈ KITH - KPHL

Flight Track Log - Related Links

Times and Time Zones

All times are in EST time to prevent confusion due to time zone crossing. See the PDT4142 flight status page for this flight to view local times or setup timezone preferences in your user account.

Time Position Orientation Groundspeed Altitude Reporting Facility
EST Latitude Longitude Course Direction KTS MPH feet Rate Location/Type
04:06PM 42.5058 -76.5389 142° Southeast 167 192 4,100  Level New York Center
04:07PM 42.4681 -76.4992 142° Southeast 180 207 5,100 1,020 Climbing New York Center
04:08PM 42.4286 -76.4533 139° Southeast 207 238 6,200 960 Climbing New York Center
04:09PM 42.3911 -76.4081 138° Southeast 184 212 7,100 960 Climbing New York Center
04:10PM 42.3497 -76.3597 139° Southeast 184 212 8,200 900 Climbing New York Center
04:11PM 42.3083 -76.3111 139° Southeast 190 219 9,000 300 Climbing New York Center
04:12PM 42.2589 -76.2567 141° Southeast 209 241 8,900 -60 Descending New York Center
04:13PM 42.2033 -76.1933 140° Southeast 239 275 8,900  Level New York Center
04:14PM 42.1458 -76.1297 141° Southeast 258 297 9,000  Climbing New York Center
04:15PM 42.0767 -76.0989 162° South 258 297 9,000  Level New York Center
04:16PM 42.0092 -76.0686 162° South 263 303 9,000  Level New York Center
04:17PM 41.9319 -76.0261 158° South 263 303 9,000  Level New York Center
04:18PM 41.8669 -75.9931 159° South 263 303 9,000  Level New York Center
04:19PM 41.7994 -75.9600 160° South 263 303 9,000  Level New York Center
04:20PM 41.7383 -75.9300 160° South 263 303 9,000  Level New York Center
04:21PM 41.6731 -75.8972 159° South 258 297 9,000 -120 Level New York Center
04:22PM 41.5975 -75.8639 162° South 258 297 8,800 -420 Descending New York Center
04:23PM 41.5303 -75.8308 160° South 265 305 8,200 -420 Descending New York Center
04:24PM 41.4628 -75.7983 160° South 265 305 8,000 -120 Descending New York Center
04:25PM 41.3933 -75.7681 162° South 265 305 8,000  Level New York Center
04:26PM 41.3261 -75.7328 158° South 259 298 8,000  Level New York Center
04:27PM 41.2525 -75.6997 155° Southeast 259 298 8,000  Level New York Center
04:28PM 41.1872 -75.6675 160° South 259 298 8,000 -60 Level New York Center
04:36PM 40.6333 -75.5333 191° South 256 295 7,700 -120 Descending Philadelphia TRACON
04:37PM 40.6956 -75.4549 190° South  Level FlightAware Approximate
04:37PM 40.5833 -75.5167 166° South 267 307 7,300  Level Philadelphia TRACON
04:38PM 40.6322 -75.4695 190° South  Level FlightAware Approximate
04:38PM 40.5167 -75.5000 169° South 260 299 7,000  Level Philadelphia TRACON
04:39PM 40.5688 -75.4842 190° South  Level FlightAware Approximate
04:39PM 40.4500 -75.4833 169° South 259 298 7,000  Level Philadelphia TRACON
04:40PM 40.5053 -75.4988 190° South  Level FlightAware Approximate
04:40PM 40.3833 -75.4333 150° Southeast 256 295 7,000  Level Philadelphia TRACON
04:41PM 40.4415 -75.5084 189° South  Level FlightAware Approximate
04:41PM 40.3333 -75.3833 143° Southeast 256 295 7,000  Level Philadelphia TRACON
04:42PM 40.3779 -75.5222 191° South  Level FlightAware Approximate
04:42PM 40.2833 -75.3333 143° Southeast 245 282 7,000  Level Philadelphia TRACON
04:43PM 40.2167 -75.2833 150° Southeast 242 278 7,000  Level Philadelphia TRACON
04:44PM 40.1667 -75.2500 153° Southeast 241 277 7,000  Level Philadelphia TRACON
04:45PM 40.1167 -75.2833 207° Southwest 211 243 7,000  Level Philadelphia TRACON
04:46PM 40.1000 -75.3500 252° West 214 246 7,000  Level Philadelphia TRACON
04:47PM 40.1000 -75.4167 270° West 214 246 7,000  Level Philadelphia TRACON
04:48PM 40.1167 -75.4833 288° West 213 245 7,000  Level Philadelphia TRACON
04:49PM 40.1333 -75.4167 72° East 252 290 7,000  Level Philadelphia TRACON
04:50PM 40.0833 -75.3833 153° Southeast 241 277 7,000  Level Philadelphia TRACON
04:51PM 40.0333 -75.4167 207° Southwest 217 250 7,000  Level Philadelphia TRACON
04:52PM 40.0000 -75.4833 237° Southwest 220 253 7,000 -180 Level Philadelphia TRACON
04:53PM 39.9667 -75.5500 237° Southwest 220 253 6,700 -540 Descending Philadelphia TRACON
04:54PM 39.9333 -75.6167 237° Southwest 217 250 6,000 -480 Descending Philadelphia TRACON
04:55PM 39.9000 -75.6667 229° Southwest 214 246 5,800 -600 Descending Philadelphia TRACON
04:56PM 39.8333 -75.6833 191° South 220 253 4,800 -900 Descending Philadelphia TRACON
04:57PM 39.8000 -75.6333 131° Southeast 213 245 4,000 -420 Descending Philadelphia TRACON
04:58PM 39.8000 -75.5500 90° East 208 239 4,000 -240 Level Philadelphia TRACON
04:59PM 39.8167 -75.5000 67° East 167 192 3,600 -660 Descending Philadelphia TRACON
05:00PM 39.8333 -75.4333 72° East 159 183 2,700 -900 Descending Philadelphia TRACON
05:01PM 39.8333 -75.4000 90° East 111 128 1,900 -720 Descending Philadelphia TRACON
05:02PM 39.8500 -75.3500 67° East 121 139 1,300 -660 Descending Philadelphia TRACON
05:03PM 39.8500 -75.3167 90° East 116 133 600 -720 Descending Philadelphia TRACON